Time;durP1;ratioP1;P1;durP2;ratioP2;P2;SDS_P1;SDS_P2;PMS_P1;PMS_P2;Temp;Humidity;BMP_temperature;BMP_pressure;BME280_temperature;BME280_humidity;BME280_pressure;Samples;Min_cycle;Max_cycle;Signal;HPM_P1;HPM_P2
2022/01/11 00:01:21;;;;;;;42.97;34.00;;;-0.40;74.00;;;;;;5092599;28;20028;-67
2022/01/11 00:03:48;;;;;;;25.77;24.20;;;-0.60;73.50;;;;;;5092608;28;20028;-66
2022/01/11 00:08:41;;;;;;;24.70;23.38;;;-0.70;73.90;;;;;;5093739;28;20058;-66
2022/01/11 00:11:06;;;;;;;25.88;24.25;;;-0.70;74.00;;;;;;5092558;28;20031;-68
2022/01/11 00:13:37;;;;;;;25.42;23.90;;;-0.70;74.20;;;;;;5092244;28;20052;-66
2022/01/11 00:16:05;;;;;;;26.65;25.17;;;-0.70;74.20;;;;;;5092549;28;20551;-67
2022/01/11 00:18:30;;;;;;;32.35;29.90;;;-0.70;74.20;;;;;;5093513;28;20052;-65
2022/01/11 00:20:56;;;;;;;30.27;28.80;;;-0.70;74.10;;;;;;5093648;28;20104;-66
2022/01/11 00:25:48;;;;;;;26.98;25.10;;;-0.90;73.80;;;;;;5093689;28;20032;-66
2022/01/11 00:28:17;;;;;;;22.27;20.77;;;-1.00;73.80;;;;;;5092327;28;20057;-67
2022/01/11 00:30:44;;;;;;;25.77;24.20;;;-1.00;74.10;;;;;;5094115;28;20081;-66
2022/01/11 00:33:15;;;;;;;27.38;25.48;;;-1.00;74.00;;;;;;5093578;28;20024;-66
2022/01/11 00:35:44;;;;;;;22.77;21.60;;;-1.00;74.30;;;;;;5092411;28;20081;-66
2022/01/11 00:38:16;;;;;;;23.67;22.23;;;-0.90;74.60;;;;;;5092081;28;20047;-65
2022/01/11 00:40:53;;;;;;;25.63;24.20;;;-0.80;74.70;;;;;;5092401;28;20020;-66
2022/01/11 00:43:21;;;;;;;28.02;26.15;;;-0.80;74.60;;;;;;5093023;28;20429;-66
2022/01/11 00:45:48;;;;;;;25.52;23.98;;;-0.90;73.90;;;;;;5092651;28;20025;-65
2022/01/11 00:48:14;;;;;;;30.38;27.75;;;-0.90;74.20;;;;;;5092549;28;20028;-64
2022/01/11 00:50:40;;;;;;;26.38;24.65;;;-1.00;74.20;;;;;;5092180;28;20028;-65
2022/01/11 00:53:08;;;;;;;26.17;24.20;;;-1.00;74.20;;;;;;5092067;28;20036;-65
2022/01/11 00:55:34;;;;;;;24.98;23.85;;;-1.10;74.00;;;;;;5092119;28;20035;-65
2022/01/11 00:58:02;;;;;;;23.88;22.42;;;-1.20;74.10;;;;;;5092185;28;20032;-65
2022/01/11 01:00:29;;;;;;;26.35;24.65;;;-1.20;74.40;;;;;;5094240;28;20028;-65
2022/01/11 01:02:55;;;;;;;40.70;37.00;;;-1.20;74.40;;;;;;5095933;28;20032;-66
2022/01/11 01:05:21;;;;;;;26.05;24.27;;;-1.30;74.20;;;;;;5095797;28;20027;-66
2022/01/11 01:07:48;;;;;;;31.52;29.10;;;-1.30;74.40;;;;;;5097094;28;20020;-66
2022/01/11 01:10:56;;;;;;;27.50;24.75;;;-1.30;74.50;;;;;;5095758;28;20024;-65
2022/01/11 01:13:09;;;;;;;40.20;36.80;;;-1.30;74.60;;;;;;5088556;28;20481;-66
2022/01/11 01:15:35;;;;;;;33.75;31.05;;;-1.30;74.60;;;;;;5095914;28;20032;-66
2022/01/11 01:18:01;;;;;;;35.08;31.95;;;-1.30;74.70;;;;;;5095568;28;20032;-65
2022/01/11 01:20:27;;;;;;;33.03;29.88;;;-1.40;74.30;;;;;;5095443;28;20036;-66
2022/01/11 01:22:53;;;;;;;28.85;26.48;;;-1.30;74.60;;;;;;5096828;28;20032;-66
2022/01/11 01:25:23;;;;;;;28.65;26.42;;;-1.40;74.30;;;;;;5095484;28;20059;-66
2022/01/11 01:27:51;;;;;;;24.23;22.70;;;-1.40;74.30;;;;;;5095776;28;20363;-67
2022/01/11 01:30:17;;;;;;;26.75;25.30;;;-1.30;74.30;;;;;;5095353;28;20024;-67
2022/01/11 01:32:44;;;;;;;25.08;23.35;;;-1.30;74.40;;;;;;5095379;28;20024;-65
2022/01/11 01:35:11;;;;;;;21.90;20.67;;;-1.20;74.50;;;;;;5095276;28;20111;-66
2022/01/11 01:37:37;;;;;;;23.35;21.90;;;-1.10;74.70;;;;;;5095220;28;20440;-66
2022/01/11 01:40:05;;;;;;;24.95;23.55;;;-1.10;74.70;;;;;;5095740;28;20032;-66
2022/01/11 01:42:31;;;;;;;23.35;21.83;;;-1.00;74.60;;;;;;5095075;28;20107;-66
2022/01/11 01:45:01;;;;;;;26.92;25.38;;;-0.90;74.50;;;;;;5095214;28;20394;-66
2022/01/11 01:47:26;;;;;;;23.10;21.67;;;-0.90;74.10;;;;;;5095052;28;20028;-66
2022/01/11 01:49:52;;;;;;;22.98;21.73;;;-0.90;73.90;;;;;;5095438;28;20074;-66
2022/01/11 01:52:18;;;;;;;22.70;21.60;;;-0.90;73.90;;;;;;5096069;28;20028;-66
2022/01/11 01:54:45;;;;;;;24.60;22.80;;;-1.00;73.70;;;;;;5095096;28;20039;-66
2022/01/11 01:57:11;;;;;;;22.42;21.27;;;-1.00;73.90;;;;;;5095074;28;20028;-67
2022/01/11 01:59:37;;;;;;;25.30;24.10;;;-0.90;73.90;;;;;;5096094;28;20035;-67
2022/01/11 02:02:05;;;;;;;23.08;21.95;;;-0.90;73.90;;;;;;5094811;28;20032;-65
2022/01/11 02:04:31;;;;;;;22.67;21.42;;;-0.90;73.90;;;;;;5096108;28;20086;-65
2022/01/11 02:06:57;;;;;;;23.40;21.77;;;-1.00;73.70;;;;;;5094795;28;20020;-66
2022/01/11 02:09:23;;;;;;;22.88;21.17;;;-1.00;73.60;;;;;;5094642;28;20429;-65
2022/01/11 02:11:48;;;;;;;21.25;20.15;;;-0.90;73.70;;;;;;5094526;28;20081;-66
2022/01/11 02:14:14;;;;;;;24.75;23.38;;;-1.00;73.50;;;;;;5093921;28;20513;-65
2022/01/11 02:16:40;;;;;;;25.38;24.05;;;-1.00;73.20;;;;;;5095760;28;20538;-65
2022/01/11 02:19:06;;;;;;;25.35;23.80;;;-1.10;73.40;;;;;;5096056;28;20110;-66
2022/01/11 02:21:31;;;;;;;28.75;26.77;;;-1.10;73.40;;;;;;5095614;28;20020;-66
2022/01/11 02:23:59;;;;;;;23.92;22.27;;;-1.20;73.10;;;;;;5094398;28;20032;-65
2022/01/11 02:26:25;;;;;;;27.75;26.05;;;-1.20;73.50;;;;;;5095448;28;20032;-65
2022/01/11 02:28:52;;;;;;;25.73;23.92;;;-1.30;73.30;;;;;;5094301;28;20128;-65
2022/01/11 02:31:19;;;;;;;24.90;23.55;;;-1.40;73.40;;;;;;5095462;28;20032;-65
2022/01/11 02:33:48;;;;;;;27.15;25.75;;;-1.40;73.40;;;;;;5094060;28;20028;-65
2022/01/11 02:36:23;;;;;;;25.98;24.40;;;-1.40;73.60;;;;;;5094187;28;20028;-66
2022/01/11 02:38:52;;;;;;;27.70;25.85;;;-1.30;73.60;;;;;;5094137;28;20024;-66
2022/01/11 02:41:18;;;;;;;24.92;23.30;;;-1.30;73.60;;;;;;5094125;28;20382;-66
2022/01/11 02:43:48;;;;;;;25.33;23.73;;;-1.30;73.40;;;;;;5095021;28;20028;-66
2022/01/11 02:46:19;;;;;;;25.90;23.73;;;-1.30;73.60;;;;;;5094201;28;20024;-65
2022/01/11 02:48:46;;;;;;;29.15;27.27;;;-1.20;73.70;;;;;;5095204;28;20077;-66
2022/01/11 02:51:12;;;;;;;27.45;25.65;;;-1.20;73.70;;;;;;5093751;28;20020;-65
2022/01/11 02:53:42;;;;;;;26.08;24.38;;;-1.20;73.70;;;;;;5093694;28;20371;-66
2022/01/11 02:56:09;;;;;;;29.95;27.30;;;-1.10;73.40;;;;;;5093622;28;20075;-66
2022/01/11 02:58:35;;;;;;;29.42;27.13;;;-1.10;73.50;;;;;;5094927;28;20131;-66
2022/01/11 03:01:00;;;;;;;28.65;26.33;;;-1.10;73.50;;;;;;5094634;28;20103;-65
2022/01/11 03:03:26;;;;;;;25.80;24.10;;;-1.10;73.50;;;;;;5093487;28;20028;-64
2022/01/11 03:05:57;;;;;;;26.35;24.95;;;-1.10;73.30;;;;;;5094767;28;20020;-64
2022/01/11 03:08:26;;;;;;;22.60;21.25;;;-1.10;73.30;;;;;;5093509;28;20030;-64
2022/01/11 03:10:53;;;;;;;23.95;22.40;;;-1.00;73.30;;;;;;5093458;28;20028;-65
2022/01/11 03:13:20;;;;;;;24.98;23.42;;;-1.00;73.30;;;;;;5093115;28;20067;-64
2022/01/11 03:15:47;;;;;;;25.58;24.40;;;-1.10;73.10;;;;;;5093350;28;20021;-63
2022/01/11 03:18:14;;;;;;;28.92;27.52;;;-1.10;72.90;;;;;;5093216;28;20052;-64
2022/01/11 03:20:42;;;;;;;24.55;23.15;;;-1.20;73.10;;;;;;5093285;28;20032;-63
2022/01/11 03:23:09;;;;;;;24.90;23.50;;;-1.10;73.40;;;;;;5092659;28;20040;-63
2022/01/11 03:25:35;;;;;;;26.52;25.08;;;-1.00;73.30;;;;;;5093408;28;20028;-63
2022/01/11 03:28:04;;;;;;;28.60;27.00;;;-1.00;73.10;;;;;;5094434;28;20031;-63
2022/01/11 03:30:30;;;;;;;28.45;26.25;;;-1.10;72.40;;;;;;5093401;28;20078;-64
2022/01/11 03:32:56;;;;;;;23.95;22.63;;;-1.20;72.80;;;;;;5093271;28;20028;-64
2022/01/11 03:35:23;;;;;;;28.35;26.55;;;-1.20;73.10;;;;;;5093235;28;20029;-64
2022/01/11 03:37:50;;;;;;;25.23;23.67;;;-1.30;73.00;;;;;;5093009;28;20027;-65
2022/01/11 03:40:25;;;;;;;23.88;22.33;;;-1.20;73.10;;;;;;5093438;28;20118;-64
2022/01/11 03:42:51;;;;;;;26.98;25.02;;;-1.20;73.20;;;;;;5094440;28;20076;-65
2022/01/11 03:45:21;;;;;;;25.90;24.45;;;-1.10;73.20;;;;;;5094176;28;20028;-65
2022/01/11 03:47:52;;;;;;;26.38;24.92;;;-1.10;72.80;;;;;;5093182;28;20158;-64
2022/01/11 03:50:18;;;;;;;25.73;24.17;;;-1.10;72.80;;;;;;5094109;28;20024;-64
2022/01/11 03:52:45;;;;;;;26.40;24.95;;;-1.20;72.30;;;;;;5093189;28;20047;-64
2022/01/11 03:55:15;;;;;;;23.73;22.25;;;-1.20;72.30;;;;;;5092755;28;20466;-65
2022/01/11 03:57:41;;;;;;;28.00;25.98;;;-1.20;72.70;;;;;;5093946;28;20024;-63
2022/01/11 04:00:12;;;;;;;24.42;23.00;;;-1.20;72.90;;;;;;5092898;28;20036;-64
2022/01/11 04:02:37;;;;;;;23.38;21.85;;;-1.10;72.90;;;;;;5093979;28;20068;-64
2022/01/11 04:05:04;;;;;;;21.90;20.75;;;-1.10;72.50;;;;;;5092579;28;20422;-63
2022/01/11 04:07:29;;;;;;;25.88;24.40;;;-1.10;72.50;;;;;;5092572;28;20405;-63
2022/01/11 04:09:56;;;;;;;22.95;21.58;;;-1.10;72.30;;;;;;5092761;28;20024;-63
2022/01/11 04:12:23;;;;;;;27.25;25.60;;;-1.10;72.30;;;;;;5092448;28;20024;-63
2022/01/11 04:14:49;;;;;;;26.58;25.20;;;-1.10;72.20;;;;;;5092442;28;20069;-63
2022/01/11 04:17:15;;;;;;;27.80;25.50;;;-1.10;72.30;;;;;;5092306;28;20028;-63
2022/01/11 04:19:41;;;;;;;29.35;27.67;;;-1.10;72.50;;;;;;5093616;28;20055;-63
2022/01/11 04:22:07;;;;;;;25.58;23.98;;;-1.00;72.60;;;;;;5092499;28;20020;-63
2022/01/11 04:24:33;;;;;;;26.35;24.27;;;-1.00;72.60;;;;;;5092335;28;20028;-63
2022/01/11 04:26:58;;;;;;;28.50;26.33;;;-0.90;72.70;;;;;;5092128;28;20069;-63
2022/01/11 04:29:24;;;;;;;35.25;31.77;;;-0.90;72.60;;;;;;5093627;28;20115;-63
2022/01/11 04:31:50;;;;;;;31.52;28.83;;;-0.80;72.70;;;;;;5092316;28;20026;-63
2022/01/11 04:34:15;;;;;;;32.15;29.55;;;-0.70;72.60;;;;;;5092537;28;20032;-62
2022/01/11 04:36:41;;;;;;;33.38;30.50;;;-0.70;72.50;;;;;;5096367;28;20028;-63
2022/01/11 04:39:10;;;;;;;32.03;29.92;;;-0.70;72.40;;;;;;5097709;28;20118;-63
2022/01/11 04:41:36;;;;;;;26.92;24.98;;;-0.70;71.80;;;;;;5096197;28;20030;-63
2022/01/11 04:44:03;;;;;;;30.38;27.35;;;-0.80;71.90;;;;;;5097381;28;20020;-64
2022/01/11 04:46:29;;;;;;;27.95;26.15;;;-0.90;71.90;;;;;;5096214;28;20031;-63
2022/01/11 04:48:55;;;;;;;28.13;26.27;;;-1.00;71.60;;;;;;5090620;28;20016;-64
2022/01/11 04:51:22;;;;;;;29.73;27.25;;;-1.10;71.80;;;;;;5087859;28;20032;-65
2022/01/11 04:53:48;;;;;;;27.80;25.98;;;-1.20;71.70;;;;;;5095912;28;20032;-64
2022/01/11 04:56:15;;;;;;;24.90;23.00;;;-1.40;71.70;;;;;;5096186;28;20076;-64
2022/01/11 04:58:41;;;;;;;26.15;24.48;;;-1.40;72.30;;;;;;5095724;28;20027;-64
2022/01/11 05:01:06;;;;;;;25.85;23.85;;;-1.30;72.50;;;;;;5087554;28;20486;-65
2022/01/11 05:03:33;;;;;;;24.02;22.55;;;-1.30;72.40;;;;;;5087055;28;20040;-65
2022/01/11 05:05:58;;;;;;;27.33;25.77;;;-1.30;72.50;;;;;;5086519;28;20027;-64
2022/01/11 05:08:24;;;;;;;26.38;24.65;;;-1.30;72.50;;;;;;5086334;28;20024;-65
2022/01/11 05:10:50;;;;;;;25.65;23.67;;;-1.20;72.50;;;;;;5086782;28;20040;-64
2022/01/11 05:13:18;;;;;;;28.63;26.08;;;-1.30;72.40;;;;;;5089233;28;20063;-64
2022/01/11 05:15:45;;;;;;;30.13;28.17;;;-1.20;72.60;;;;;;5095618;28;20467;-65
2022/01/11 05:18:11;;;;;;;27.50;25.70;;;-1.20;72.50;;;;;;5095479;28;20028;-64
2022/01/11 05:20:38;;;;;;;30.35;28.15;;;-1.30;72.60;;;;;;5095653;28;20390;-65
2022/01/11 05:23:05;;;;;;;29.10;26.27;;;-1.30;72.70;;;;;;5090671;28;20032;-64
2022/01/11 05:25:31;;;;;;;28.50;26.80;;;-1.40;72.60;;;;;;5084558;28;20032;-65
2022/01/11 05:27:59;;;;;;;29.15;26.83;;;-1.40;72.90;;;;;;5083063;28;20398;-64
2022/01/11 05:30:25;;;;;;;24.23;22.55;;;-1.30;72.90;;;;;;5084251;28;20100;-64
2022/01/11 05:32:51;;;;;;;28.27;26.27;;;-1.40;73.30;;;;;;5081091;28;20071;-66
2022/01/11 05:35:20;;;;;;;28.52;25.85;;;-1.40;72.40;;;;;;5078687;28;20434;-65
2022/01/11 05:37:46;;;;;;;27.15;25.40;;;-1.50;72.50;;;;;;5091997;28;20038;-66
2022/01/11 05:40:14;;;;;;;29.13;26.90;;;-1.50;72.80;;;;;;5091462;28;20028;-66
2022/01/11 05:42:40;;;;;;;30.98;28.15;;;-1.40;73.00;;;;;;5084821;28;20442;-66
2022/01/11 05:45:07;;;;;;;31.58;29.00;;;-1.30;73.10;;;;;;5082256;28;20021;-66
2022/01/11 05:47:34;;;;;;;29.05;27.10;;;-1.30;72.90;;;;;;5084518;28;20031;-67
2022/01/11 05:50:01;;;;;;;27.92;25.60;;;-1.30;72.90;;;;;;5087328;28;20028;-66
2022/01/11 05:52:27;;;;;;;29.20;26.77;;;-1.20;73.00;;;;;;5096213;28;20085;-65
2022/01/11 05:54:53;;;;;;;27.60;25.70;;;-1.20;72.90;;;;;;5095770;28;20040;-65
2022/01/11 05:57:19;;;;;;;27.27;25.00;;;-1.20;73.10;;;;;;5095841;28;20024;-67
2022/01/11 14:32:53;;;;;;;27.73;25.85;;;-1.80;72.90;;;;;;5101101;27;1305586;-81
2022/01/11 14:35:22;;;;;;;27.65;25.63;;;-0.60;76.60;;;;;;5115209;28;20028;-81
2022/01/11 14:38:04;;;;;;;25.65;23.77;;;-0.40;75.40;;;;;;5110304;28;20043;-82
2022/01/11 14:40:30;;;;;;;25.85;24.33;;;-0.10;74.90;;;;;;5117228;28;20031;-78
2022/01/11 14:43:16;;;;;;;24.58;23.13;;;-0.10;74.50;;;;;;5119236;28;20102;-76
2022/01/11 14:45:44;;;;;;;25.02;23.80;;;0.00;74.20;;;;;;5116641;28;20027;-77
2022/01/11 14:48:10;;;;;;;23.90;22.35;;;-0.10;73.80;;;;;;5120548;28;20019;-78
2022/01/11 14:50:36;;;;;;;26.00;24.42;;;-0.10;74.10;;;;;;5117661;28;20092;-82
2022/01/11 14:53:14;;;;;;;24.63;22.73;;;-0.10;74.00;;;;;;5120080;28;20027;-80
2022/01/11 14:55:57;;;;;;;27.75;25.83;;;-0.20;73.70;;;;;;5127895;28;20037;-79
2022/01/11 14:58:39;;;;;;;25.83;24.35;;;-0.10;74.10;;;;;;5132368;28;20059;-77
2022/01/11 15:01:18;;;;;;;24.73;23.30;;;-0.20;73.70;;;;;;5130406;28;20063;-79
2022/01/11 15:03:50;;;;;;;23.17;21.98;;;-0.20;73.50;;;;;;5130709;28;20028;-80
2022/01/11 15:06:18;;;;;;;28.20;25.95;;;-0.20;73.70;;;;;;5130543;28;20061;-80
2022/01/11 15:08:51;;;;;;;23.33;21.88;;;-0.30;73.70;;;;;;5125542;27;20034;-78
2022/01/11 15:11:25;;;;;;;21.00;19.90;;;-0.30;73.70;;;;;;5121165;28;20066;-80
2022/01/11 15:13:56;;;;;;;24.25;22.75;;;-0.30;73.70;;;;;;5117661;28;20103;-79
2022/01/11 15:16:27;;;;;;;22.63;21.08;;;-0.30;73.80;;;;;;5118603;28;20072;-80
2022/01/11 15:18:53;;;;;;;25.23;23.88;;;-0.30;73.70;;;;;;5116447;28;20026;-81
2022/01/11 15:21:21;;;;;;;22.20;20.88;;;-0.30;73.40;;;;;;5118907;28;20080;-81
2022/01/11 15:23:48;;;;;;;26.50;24.38;;;-0.30;73.50;;;;;;5119403;28;20098;-81
2022/01/11 15:26:17;;;;;;;23.83;22.58;;;-0.30;73.50;;;;;;5115049;28;20351;-77
2022/01/11 15:28:42;;;;;;;23.83;22.45;;;-0.30;73.60;;;;;;5117231;28;20115;-78
2022/01/11 15:31:08;;;;;;;27.73;25.98;;;-0.20;73.70;;;;;;5120047;28;20491;-79
2022/01/11 15:33:34;;;;;;;26.73;24.58;;;-0.20;73.60;;;;;;5118539;28;20433;-80
2022/01/11 15:36:00;;;;;;;22.10;20.95;;;-0.30;73.50;;;;;;5120229;28;20019;-78
2022/01/11 15:38:25;;;;;;;22.65;21.48;;;-0.30;73.70;;;;;;5119458;28;20063;-76
2022/01/11 15:40:56;;;;;;;23.75;22.45;;;-0.30;73.50;;;;;;5118400;28;20027;-77
2022/01/11 15:43:22;;;;;;;25.08;23.42;;;-0.30;73.20;;;;;;5114144;28;20023;-78
2022/01/11 15:45:48;;;;;;;23.02;21.77;;;-0.30;73.30;;;;;;5107099;28;20011;-78
2022/01/11 15:48:14;;;;;;;26.27;24.92;;;-0.20;73.40;;;;;;5104853;28;20016;-77
2022/01/11 15:50:40;;;;;;;21.98;20.77;;;-0.30;73.30;;;;;;5105157;28;20142;-78
2022/01/11 15:53:05;;;;;;;32.70;28.58;;;-0.20;73.50;;;;;;5105960;28;20036;-77
2022/01/11 15:55:31;;;;;;;29.20;26.55;;;-0.20;73.30;;;;;;5102689;28;20017;-77
2022/01/11 15:57:57;;;;;;;25.10;23.25;;;-0.20;73.30;;;;;;5103837;28;20030;-75
2022/01/11 16:00:23;;;;;;;24.20;23.00;;;-0.20;72.90;;;;;;5104461;28;20020;-77
2022/01/11 16:02:48;;;;;;;23.77;22.23;;;-0.20;73.00;;;;;;5104465;28;20024;-77
2022/01/11 16:05:14;;;;;;;24.83;23.45;;;-0.20;72.70;;;;;;5105864;28;20020;-77
2022/01/11 16:07:40;;;;;;;23.02;21.58;;;-0.20;72.90;;;;;;5104994;28;20377;-78
2022/01/11 16:10:06;;;;;;;20.35;18.95;;;-0.30;73.00;;;;;;5102508;28;20572;-74
2022/01/11 16:12:31;;;;;;;23.77;22.33;;;-0.30;72.80;;;;;;5104545;28;20035;-79
2022/01/11 16:14:58;;;;;;;26.02;24.40;;;-0.30;72.80;;;;;;5104294;28;20020;-78
2022/01/11 16:17:24;;;;;;;24.58;23.27;;;-0.30;72.90;;;;;;5104353;28;20102;-79
2022/01/11 16:19:49;;;;;;;25.25;23.65;;;-0.30;73.10;;;;;;5104635;28;20536;-76
2022/01/11 16:22:15;;;;;;;25.77;23.98;;;-0.30;73.00;;;;;;5103943;28;20034;-79
2022/01/11 16:24:41;;;;;;;25.42;24.13;;;-0.30;72.90;;;;;;5103126;28;20053;-78
2022/01/11 16:27:07;;;;;;;22.23;20.58;;;-0.30;72.90;;;;;;5104819;28;20357;-78
2022/01/11 16:29:35;;;;;;;23.83;22.17;;;-0.30;72.90;;;;;;5101904;28;20025;-83
2022/01/11 16:32:02;;;;;;;23.75;22.45;;;-0.30;72.90;;;;;;5102378;28;20055;-78
2022/01/11 16:34:27;;;;;;;23.95;22.73;;;-0.30;72.90;;;;;;5092005;28;20039;-72
2022/01/11 16:36:55;;;;;;;21.52;20.27;;;-0.40;72.90;;;;;;5073174;28;20024;-78
2022/01/11 16:39:44;;;;;;;22.65;20.90;;;-0.30;73.00;;;;;;5092454;28;20492;-75
2022/01/11 16:44:55;;;;;;;23.30;22.25;;;-0.30;73.10;;;;;;5088457;28;20054;-75
2022/01/11 16:47:21;;;;;;;21.52;20.42;;;-0.20;72.90;;;;;;5076371;28;20027;-71
2022/01/11 16:49:47;;;;;;;25.85;24.35;;;-0.30;72.90;;;;;;5093424;28;20031;-76
2022/01/11 16:52:13;;;;;;;21.88;20.42;;;-0.20;73.00;;;;;;5097680;28;20055;-77
2022/01/11 16:54:38;;;;;;;21.15;19.95;;;-0.20;73.10;;;;;;5098063;28;20044;-76
2022/01/11 16:57:08;;;;;;;25.33;22.88;;;-0.20;73.00;;;;;;5100750;28;20096;-81
2022/01/11 16:59:36;;;;;;;25.27;23.65;;;-0.30;72.60;;;;;;5106050;28;20032;-83
2022/01/11 17:02:02;;;;;;;24.83;23.15;;;-0.30;72.80;;;;;;5115996;28;20024;-78
2022/01/11 17:04:28;;;;;;;25.65;23.52;;;-0.40;72.90;;;;;;5090648;28;20020;-79
2022/01/11 17:06:54;;;;;;;28.92;26.75;;;-0.30;73.10;;;;;;5091944;28;20339;-80
2022/01/11 17:09:20;;;;;;;28.33;26.08;;;-0.40;73.10;;;;;;5102377;28;20024;-80
2022/01/11 17:11:45;;;;;;;22.30;20.55;;;-0.40;73.20;;;;;;5105683;28;20020;-82
2022/01/11 17:14:11;;;;;;;28.25;26.27;;;-0.40;73.00;;;;;;5107827;28;20026;-82
2022/01/11 17:16:37;;;;;;;32.50;30.13;;;-0.50;72.80;;;;;;5106060;28;20030;-80
2022/01/11 17:19:03;;;;;;;26.05;24.17;;;-0.60;73.00;;;;;;5101217;28;20049;-79
2022/01/11 17:21:29;;;;;;;26.00;23.92;;;-0.70;73.20;;;;;;5104272;28;20072;-82
2022/01/11 17:23:55;;;;;;;23.05;21.67;;;-0.60;73.60;;;;;;5103541;28;20032;-82
2022/01/11 17:26:20;;;;;;;23.77;22.42;;;-0.60;73.70;;;;;;5102779;28;20020;-76
2022/01/11 17:28:46;;;;;;;24.13;22.42;;;-0.60;73.70;;;;;;5103089;28;20041;-84
2022/01/11 17:31:11;;;;;;;27.17;24.98;;;-0.60;73.90;;;;;;5103542;28;20489;-83
2022/01/11 17:33:38;;;;;;;34.90;31.58;;;-0.50;73.80;;;;;;5105270;28;20389;-83
2022/01/11 17:36:04;;;;;;;23.85;22.00;;;-0.60;73.40;;;;;;5102274;28;20378;-81
2022/01/11 17:38:30;;;;;;;25.88;24.05;;;-0.60;73.30;;;;;;5103708;28;20164;-81
2022/01/11 17:40:55;;;;;;;27.20;25.52;;;-0.60;73.20;;;;;;5104161;28;20099;-79
2022/01/11 17:43:21;;;;;;;24.52;22.70;;;-0.60;73.30;;;;;;5101372;28;20034;-83
2022/01/11 17:45:46;;;;;;;19.92;18.65;;;-0.60;73.40;;;;;;5102924;28;20028;-78
2022/01/11 17:48:12;;;;;;;24.58;22.52;;;-0.60;73.20;;;;;;5095574;28;20016;-86
2022/01/11 17:50:38;;;;;;;24.52;23.13;;;-0.70;72.90;;;;;;5100049;28;20028;-79
2022/01/11 17:53:04;;;;;;;25.48;23.52;;;-0.80;72.90;;;;;;5102527;28;20388;-73
2022/01/11 17:55:31;;;;;;;23.67;22.00;;;-0.80;73.20;;;;;;5102658;28;20019;-77
2022/01/11 17:57:58;;;;;;;56.15;45.45;;;-0.80;73.30;;;;;;5103465;28;20374;-84
2022/01/11 18:00:24;;;;;;;23.50;21.90;;;-0.80;72.90;;;;;;5104882;28;20015;-84
2022/01/11 18:02:51;;;;;;;23.67;22.30;;;-0.90;73.10;;;;;;5106671;28;20026;-80
2022/01/11 18:05:17;;;;;;;24.42;22.92;;;-0.80;73.30;;;;;;5104174;28;20018;-81
2022/01/11 18:07:42;;;;;;;51.03;38.80;;;-0.80;73.00;;;;;;5106211;28;20024;-84
2022/01/11 18:10:09;;;;;;;34.33;31.27;;;-0.80;72.90;;;;;;5101726;28;20034;-84
2022/01/11 18:12:36;;;;;;;24.20;22.70;;;-0.90;72.90;;;;;;5106165;28;20027;-85
2022/01/11 18:15:02;;;;;;;23.75;22.40;;;-0.90;72.90;;;;;;5106192;28;20027;-85
2022/01/11 18:17:29;;;;;;;25.77;24.08;;;-0.90;73.00;;;;;;5098235;28;20069;-85
2022/01/11 18:19:55;;;;;;;23.02;21.38;;;-0.90;73.10;;;;;;5098584;28;20124;-85
2022/01/11 18:22:21;;;;;;;20.73;19.60;;;-0.80;73.10;;;;;;5096881;28;20503;-78
2022/01/11 18:24:47;;;;;;;22.20;20.75;;;-0.70;73.20;;;;;;5107001;28;20023;-83
2022/01/11 18:27:16;;;;;;;23.58;21.90;;;-0.80;72.90;;;;;;5105423;28;20027;-79
2022/01/11 18:29:43;;;;;;;24.85;23.27;;;-0.70;73.00;;;;;;5099222;28;20036;-75
2022/01/11 18:32:18;;;;;;;22.92;21.55;;;-0.70;73.10;;;;;;5100895;28;20077;-81
2022/01/11 18:34:45;;;;;;;33.08;30.73;;;-0.80;72.70;;;;;;5099162;28;20109;-75
2022/01/11 18:37:12;;;;;;;31.40;28.67;;;-0.90;72.30;;;;;;5099158;28;20052;-81
2022/01/11 18:39:42;;;;;;;23.88;22.48;;;-1.00;72.40;;;;;;5101950;28;20152;-77
2022/01/11 18:42:11;;;;;;;20.63;19.60;;;-1.00;72.70;;;;;;5102246;28;20043;-79
2022/01/11 18:44:39;;;;;;;20.30;19.30;;;-1.10;72.40;;;;;;5097485;28;20106;-80
2022/01/11 18:47:06;;;;;;;22.33;20.70;;;-1.10;72.50;;;;;;5102296;28;20359;-79
2022/01/11 18:49:32;;;;;;;19.73;18.27;;;-1.20;72.30;;;;;;5103997;28;20027;-77
2022/01/11 18:51:57;;;;;;;23.25;21.70;;;-1.20;72.50;;;;;;5100261;28;20028;-82
2022/01/11 18:54:23;;;;;;;23.33;21.92;;;-1.10;72.70;;;;;;5108091;28;20033;-79
2022/01/11 18:56:49;;;;;;;22.77;21.55;;;-1.10;72.40;;;;;;5106597;28;20019;-77
2022/01/11 18:59:15;;;;;;;23.33;21.83;;;-1.10;72.40;;;;;;5106712;28;20056;-75
2022/01/11 19:01:41;;;;;;;22.15;20.85;;;-1.20;72.20;;;;;;5092495;28;20042;-82
2022/01/11 19:04:07;;;;;;;22.30;21.20;;;-1.30;72.40;;;;;;5091786;28;20111;-78
2022/01/11 19:06:35;;;;;;;20.13;19.15;;;-1.20;72.60;;;;;;5099051;28;20587;-79
2022/01/11 19:09:05;;;;;;;22.73;21.27;;;-1.20;72.50;;;;;;5101376;28;20111;-78
2022/01/11 19:11:30;;;;;;;21.52;20.38;;;-1.20;72.60;;;;;;5101202;28;20016;-80
2022/01/11 19:13:59;;;;;;;22.23;20.55;;;-1.20;72.20;;;;;;5102858;28;20488;-76
2022/01/11 19:16:26;;;;;;;19.83;18.83;;;-1.40;71.60;;;;;;5100646;28;20034;-76
2022/01/11 19:18:52;;;;;;;22.40;21.20;;;-1.30;72.10;;;;;;5096894;28;20055;-79
2022/01/11 19:21:18;;;;;;;21.23;19.92;;;-1.40;72.20;;;;;;5101200;28;20039;-78
2022/01/11 19:23:44;;;;;;;26.55;24.48;;;-1.30;72.40;;;;;;5096077;28;20069;-79
2022/01/11 19:26:10;;;;;;;30.15;27.83;;;-1.40;71.80;;;;;;5097658;28;20019;-78
2022/01/11 19:28:35;;;;;;;23.38;21.90;;;-1.50;72.10;;;;;;5105887;28;20056;-80
2022/01/11 19:31:01;;;;;;;56.58;41.60;;;-1.60;72.10;;;;;;5105554;28;20091;-78
2022/01/11 19:33:27;;;;;;;21.60;20.25;;;-1.70;72.10;;;;;;5099346;28;20032;-75
2022/01/11 19:35:52;;;;;;;23.90;22.17;;;-1.70;72.20;;;;;;5101362;28;20173;-73
2022/01/11 19:38:18;;;;;;;20.17;18.98;;;-1.70;72.30;;;;;;5101859;28;20466;-78
2022/01/11 19:40:44;;;;;;;25.27;23.63;;;-1.60;72.40;;;;;;5104830;28;20023;-77
2022/01/11 19:43:10;;;;;;;24.88;23.15;;;-1.60;72.40;;;;;;5104228;28;20024;-76
2022/01/11 19:45:36;;;;;;;22.45;20.92;;;-1.60;72.30;;;;;;5103138;28;20032;-69
2022/01/11 19:48:02;;;;;;;27.17;24.98;;;-1.60;72.30;;;;;;5107823;28;20036;-69
2022/01/11 19:50:29;;;;;;;23.60;22.25;;;-1.50;72.50;;;;;;5099000;28;20024;-68
2022/01/11 19:52:56;;;;;;;23.00;21.90;;;-1.60;72.00;;;;;;5099681;28;20206;-71
2022/01/11 19:55:22;;;;;;;23.98;22.95;;;-1.60;72.10;;;;;;5101143;28;20030;-69
2022/01/11 19:57:50;;;;;;;28.42;26.33;;;-1.70;71.90;;;;;;5100783;28;20035;-70
2022/01/11 20:00:18;;;;;;;26.15;24.70;;;-1.70;71.70;;;;;;5112543;28;20035;-70
2022/01/11 20:02:44;;;;;;;26.50;24.98;;;-1.90;71.50;;;;;;5111131;28;20023;-69
2022/01/11 20:05:11;;;;;;;23.67;22.27;;;-1.90;71.70;;;;;;5100641;28;20020;-69
2022/01/11 20:07:38;;;;;;;23.88;22.67;;;-1.80;72.00;;;;;;5103339;28;20733;-69
2022/01/11 20:10:07;;;;;;;23.13;21.83;;;-2.00;71.60;;;;;;5104795;28;20034;-68
2022/01/11 20:12:34;;;;;;;24.40;23.02;;;-1.90;71.90;;;;;;5103146;28;20427;-70
2022/01/11 20:15:00;;;;;;;36.10;32.92;;;-2.00;71.80;;;;;;5103219;28;20019;-70
